sensor_id;sensor_type;location;lat;lon;timestamp;temperature;humidity
38866;DHT22;62686;48.984;8.394;2023-02-08T00:01:24;-2.20;99.90
38866;DHT22;62686;48.984;8.394;2023-02-08T00:03:53;-2.00;99.90
38866;DHT22;62686;48.984;8.394;2023-02-08T00:06:21;-2.10;99.90
38866;DHT22;62686;48.984;8.394;2023-02-08T00:08:49;-2.10;99.90
38866;DHT22;62686;48.984;8.394;2023-02-08T00:11:28;-2.00;99.90
38866;DHT22;62686;48.984;8.394;2023-02-08T00:13:58;-1.80;99.90
38866;DHT22;62686;48.984;8.394;2023-02-08T00:16:26;-1.80;99.90
38866;DHT22;62686;48.984;8.394;2023-02-08T00:18:54;-1.80;99.90
38866;DHT22;62686;48.984;8.394;2023-02-08T00:21:22;-1.90;99.90
38866;DHT22;62686;48.984;8.394;2023-02-08T00:23:50;-1.90;99.90
38866;DHT22;62686;48.984;8.394;2023-02-08T00:26:18;-2.00;99.90
38866;DHT22;62686;48.984;8.394;2023-02-08T00:28:46;-2.00;99.90
38866;DHT22;62686;48.984;8.394;2023-02-08T00:31:16;-2.10;99.90
38866;DHT22;62686;48.984;8.394;2023-02-08T00:33:45;-2.10;99.90
38866;DHT22;62686;48.984;8.394;2023-02-08T00:36:13;-2.20;99.90
38866;DHT22;62686;48.984;8.394;2023-02-08T00:38:41;-2.10;99.90
38866;DHT22;62686;48.984;8.394;2023-02-08T00:41:09;-2.10;99.90
38866;DHT22;62686;48.984;8.394;2023-02-08T00:43:38;-2.10;99.90
38866;DHT22;62686;48.984;8.394;2023-02-08T00:46:06;-2.00;99.90
38866;DHT22;62686;48.984;8.394;2023-02-08T00:48:36;-2.00;99.90
38866;DHT22;62686;48.984;8.394;2023-02-08T00:51:06;-2.00;99.90
38866;DHT22;62686;48.984;8.394;2023-02-08T00:53:36;-2.00;99.90
38866;DHT22;62686;48.984;8.394;2023-02-08T00:56:05;-2.00;99.90
38866;DHT22;62686;48.984;8.394;2023-02-08T00:58:33;-1.90;99.90
38866;DHT22;62686;48.984;8.394;2023-02-08T01:01:02;-1.90;99.90
38866;DHT22;62686;48.984;8.394;2023-02-08T01:03:32;-2.00;99.90
38866;DHT22;62686;48.984;8.394;2023-02-08T01:06:03;-1.90;99.90
38866;DHT22;62686;48.984;8.394;2023-02-08T01:08:32;-1.90;99.90
38866;DHT22;62686;48.984;8.394;2023-02-08T01:11:05;-2.00;99.90
38866;DHT22;62686;48.984;8.394;2023-02-08T01:13:34;-2.00;99.90
38866;DHT22;62686;48.984;8.394;2023-02-08T01:16:07;-2.00;99.90
38866;DHT22;62686;48.984;8.394;2023-02-08T01:18:36;-1.90;99.90
38866;DHT22;62686;48.984;8.394;2023-02-08T01:21:08;-1.90;99.90
38866;DHT22;62686;48.984;8.394;2023-02-08T01:23:36;-1.90;99.90
38866;DHT22;62686;48.984;8.394;2023-02-08T01:26:05;-2.10;99.90
38866;DHT22;62686;48.984;8.394;2023-02-08T01:28:34;-2.00;99.90
38866;DHT22;62686;48.984;8.394;2023-02-08T01:31:04;-2.00;99.90
38866;DHT22;62686;48.984;8.394;2023-02-08T01:33:33;-2.00;99.90
38866;DHT22;62686;48.984;8.394;2023-02-08T01:36:02;-2.00;99.90
38866;DHT22;62686;48.984;8.394;2023-02-08T01:38:31;-2.10;99.90
38866;DHT22;62686;48.984;8.394;2023-02-08T01:41:01;-2.10;99.90
38866;DHT22;62686;48.984;8.394;2023-02-08T01:43:31;-2.20;99.90
38866;DHT22;62686;48.984;8.394;2023-02-08T01:45:59;-2.10;99.90
38866;DHT22;62686;48.984;8.394;2023-02-08T01:48:30;-2.10;99.90
38866;DHT22;62686;48.984;8.394;2023-02-08T01:51:04;-2.20;99.90
38866;DHT22;62686;48.984;8.394;2023-02-08T01:53:36;-2.30;99.90
38866;DHT22;62686;48.984;8.394;2023-02-08T01:56:07;-2.30;99.90
38866;DHT22;62686;48.984;8.394;2023-02-08T01:58:39;-2.40;99.90
38866;DHT22;62686;48.984;8.394;2023-02-08T02:01:09;-2.40;99.90
38866;DHT22;62686;48.984;8.394;2023-02-08T02:03:38;-2.50;99.90
38866;DHT22;62686;48.984;8.394;2023-02-08T02:06:09;-2.60;99.90
38866;DHT22;62686;48.984;8.394;2023-02-08T02:08:43;-2.70;99.90
38866;DHT22;62686;48.984;8.394;2023-02-08T02:11:14;-2.80;99.90
38866;DHT22;62686;48.984;8.394;2023-02-08T02:13:43;-2.80;99.90
38866;DHT22;62686;48.984;8.394;2023-02-08T02:16:11;-2.80;99.90
38866;DHT22;62686;48.984;8.394;2023-02-08T02:18:39;-2.80;99.90
38866;DHT22;62686;48.984;8.394;2023-02-08T02:27:25;-2.80;99.90
38866;DHT22;62686;48.984;8.394;2023-02-08T02:30:30;-2.90;99.90
38866;DHT22;62686;48.984;8.394;2023-02-08T02:36:00;-3.10;99.90
38866;DHT22;62686;48.984;8.394;2023-02-08T02:38:42;-3.10;99.90
38866;DHT22;62686;48.984;8.394;2023-02-08T02:41:18;-3.20;99.90
38866;DHT22;62686;48.984;8.394;2023-02-08T02:44:09;-3.30;99.90
38866;DHT22;62686;48.984;8.394;2023-02-08T02:46:45;-3.40;99.90
38866;DHT22;62686;48.984;8.394;2023-02-08T02:49:22;-3.40;99.90
38866;DHT22;62686;48.984;8.394;2023-02-08T02:51:57;-3.50;99.90
38866;DHT22;62686;48.984;8.394;2023-02-08T02:54:31;-3.50;99.90
38866;DHT22;62686;48.984;8.394;2023-02-08T02:57:03;-3.40;99.90
38866;DHT22;62686;48.984;8.394;2023-02-08T02:59:34;-3.50;99.90
38866;DHT22;62686;48.984;8.394;2023-02-08T03:02:04;-3.50;99.90
38866;DHT22;62686;48.984;8.394;2023-02-08T03:04:53;-3.50;99.90
38866;DHT22;62686;48.984;8.394;2023-02-08T03:07:36;-3.50;99.90
38866;DHT22;62686;48.984;8.394;2023-02-08T03:10:35;-3.50;99.90
38866;DHT22;62686;48.984;8.394;2023-02-08T03:13:19;-3.40;99.90
38866;DHT22;62686;48.984;8.394;2023-02-08T03:16:00;-3.60;99.90
38866;DHT22;62686;48.984;8.394;2023-02-08T03:18:35;-3.80;99.90
38866;DHT22;62686;48.984;8.394;2023-02-08T03:21:09;-3.90;99.90
38866;DHT22;62686;48.984;8.394;2023-02-08T03:23:44;-3.90;99.90
38866;DHT22;62686;48.984;8.394;2023-02-08T03:26:19;-4.10;99.90
38866;DHT22;62686;48.984;8.394;2023-02-08T03:28:57;-4.10;99.90
38866;DHT22;62686;48.984;8.394;2023-02-08T03:31:34;-4.10;99.90
38866;DHT22;62686;48.984;8.394;2023-02-08T03:34:07;-4.20;99.90
38866;DHT22;62686;48.984;8.394;2023-02-08T03:36:43;-4.20;99.90
38866;DHT22;62686;48.984;8.394;2023-02-08T03:39:17;-4.30;99.90
38866;DHT22;62686;48.984;8.394;2023-02-08T03:41:49;-4.30;99.90
38866;DHT22;62686;48.984;8.394;2023-02-08T03:44:22;-4.30;99.90
38866;DHT22;62686;48.984;8.394;2023-02-08T03:46:55;-4.20;99.90
38866;DHT22;62686;48.984;8.394;2023-02-08T03:49:28;-4.40;99.90
38866;DHT22;62686;48.984;8.394;2023-02-08T03:52:01;-4.50;99.90
38866;DHT22;62686;48.984;8.394;2023-02-08T03:54:34;-4.60;99.90
38866;DHT22;62686;48.984;8.394;2023-02-08T03:57:05;-4.60;99.90
38866;DHT22;62686;48.984;8.394;2023-02-08T03:59:38;-4.60;99.90
38866;DHT22;62686;48.984;8.394;2023-02-08T04:02:10;-4.50;99.90
38866;DHT22;62686;48.984;8.394;2023-02-08T04:04:43;-4.40;99.90
38866;DHT22;62686;48.984;8.394;2023-02-08T04:07:15;-4.30;99.90
38866;DHT22;62686;48.984;8.394;2023-02-08T04:09:44;-4.10;99.90
38866;DHT22;62686;48.984;8.394;2023-02-08T04:12:12;-4.10;99.90
38866;DHT22;62686;48.984;8.394;2023-02-08T04:14:40;-4.00;99.90
38866;DHT22;62686;48.984;8.394;2023-02-08T04:17:08;-3.90;99.90
38866;DHT22;62686;48.984;8.394;2023-02-08T04:19:37;-4.00;99.90
38866;DHT22;62686;48.984;8.394;2023-02-08T04:22:05;-3.90;99.90
38866;DHT22;62686;48.984;8.394;2023-02-08T04:24:34;-3.90;99.90
38866;DHT22;62686;48.984;8.394;2023-02-08T04:27:03;-4.00;99.90
38866;DHT22;62686;48.984;8.394;2023-02-08T04:29:31;-4.00;99.90
38866;DHT22;62686;48.984;8.394;2023-02-08T04:31:59;-4.00;99.90
38866;DHT22;62686;48.984;8.394;2023-02-08T04:34:28;-4.00;99.90
38866;DHT22;62686;48.984;8.394;2023-02-08T04:36:56;-4.10;99.90
38866;DHT22;62686;48.984;8.394;2023-02-08T04:39:24;-4.10;99.90
38866;DHT22;62686;48.984;8.394;2023-02-08T04:41:54;-4.20;99.90
38866;DHT22;62686;48.984;8.394;2023-02-08T04:44:22;-4.10;99.90
38866;DHT22;62686;48.984;8.394;2023-02-08T04:46:50;-4.20;99.90
38866;DHT22;62686;48.984;8.394;2023-02-08T04:49:18;-4.10;99.90
38866;DHT22;62686;48.984;8.394;2023-02-08T04:51:46;-4.20;99.90
38866;DHT22;62686;48.984;8.394;2023-02-08T04:54:14;-4.00;99.90
38866;DHT22;62686;48.984;8.394;2023-02-08T04:56:42;-4.00;99.90
38866;DHT22;62686;48.984;8.394;2023-02-08T04:59:12;-4.00;99.90
38866;DHT22;62686;48.984;8.394;2023-02-08T05:01:40;-3.90;99.90
38866;DHT22;62686;48.984;8.394;2023-02-08T05:04:08;-3.90;99.90
38866;DHT22;62686;48.984;8.394;2023-02-08T05:06:36;-3.90;99.90
38866;DHT22;62686;48.984;8.394;2023-02-08T05:09:06;-3.80;99.90
38866;DHT22;62686;48.984;8.394;2023-02-08T05:11:35;-3.70;99.90
38866;DHT22;62686;48.984;8.394;2023-02-08T05:14:04;-3.70;99.90
38866;DHT22;62686;48.984;8.394;2023-02-08T05:16:33;-3.70;99.90
38866;DHT22;62686;48.984;8.394;2023-02-08T05:19:02;-3.70;99.90
38866;DHT22;62686;48.984;8.394;2023-02-08T05:21:30;-3.70;99.90
38866;DHT22;62686;48.984;8.394;2023-02-08T05:23:58;-3.70;99.90
38866;DHT22;62686;48.984;8.394;2023-02-08T05:26:26;-3.70;99.90
38866;DHT22;62686;48.984;8.394;2023-02-08T05:28:54;-3.70;99.90
38866;DHT22;62686;48.984;8.394;2023-02-08T05:31:24;-3.70;99.90
38866;DHT22;62686;48.984;8.394;2023-02-08T05:33:53;-3.80;99.90
38866;DHT22;62686;48.984;8.394;2023-02-08T05:36:22;-3.80;99.90
38866;DHT22;62686;48.984;8.394;2023-02-08T05:38:50;-3.90;99.90
38866;DHT22;62686;48.984;8.394;2023-02-08T05:41:19;-3.90;99.90
38866;DHT22;62686;48.984;8.394;2023-02-08T05:43:47;-3.80;99.90
38866;DHT22;62686;48.984;8.394;2023-02-08T05:46:15;-3.90;99.90
38866;DHT22;62686;48.984;8.394;2023-02-08T05:48:43;-3.90;99.90
38866;DHT22;62686;48.984;8.394;2023-02-08T05:51:13;-3.80;99.90
38866;DHT22;62686;48.984;8.394;2023-02-08T05:53:45;-3.70;99.90
38866;DHT22;62686;48.984;8.394;2023-02-08T05:56:13;-3.80;99.90
38866;DHT22;62686;48.984;8.394;2023-02-08T05:58:41;-3.80;99.90
38866;DHT22;62686;48.984;8.394;2023-02-08T06:01:10;-3.80;99.90
38866;DHT22;62686;48.984;8.394;2023-02-08T06:03:39;-3.80;99.90
38866;DHT22;62686;48.984;8.394;2023-02-08T06:06:07;-3.80;99.90
38866;DHT22;62686;48.984;8.394;2023-02-08T06:08:38;-3.90;99.90
38866;DHT22;62686;48.984;8.394;2023-02-08T06:11:07;-3.80;99.90
38866;DHT22;62686;48.984;8.394;2023-02-08T06:13:35;-3.90;99.90
38866;DHT22;62686;48.984;8.394;2023-02-08T06:16:05;-3.90;99.90
38866;DHT22;62686;48.984;8.394;2023-02-08T06:18:33;-3.90;99.90
38866;DHT22;62686;48.984;8.394;2023-02-08T06:21:01;-3.70;99.90
38866;DHT22;62686;48.984;8.394;2023-02-08T06:23:30;-3.60;99.90
38866;DHT22;62686;48.984;8.394;2023-02-08T06:25:59;-3.60;99.90
38866;DHT22;62686;48.984;8.394;2023-02-08T06:28:27;-3.70;99.90
38866;DHT22;62686;48.984;8.394;2023-02-08T06:30:55;-3.70;99.90
38866;DHT22;62686;48.984;8.394;2023-02-08T06:33:23;-3.70;99.90
38866;DHT22;62686;48.984;8.394;2023-02-08T06:35:52;-3.70;99.90
38866;DHT22;62686;48.984;8.394;2023-02-08T06:38:20;-3.70;99.90
38866;DHT22;62686;48.984;8.394;2023-02-08T06:40:49;-3.80;99.90
38866;DHT22;62686;48.984;8.394;2023-02-08T06:43:18;-3.80;99.90
38866;DHT22;62686;48.984;8.394;2023-02-08T06:45:46;-3.70;99.90
38866;DHT22;62686;48.984;8.394;2023-02-08T06:48:14;-3.70;99.90
38866;DHT22;62686;48.984;8.394;2023-02-08T06:50:43;-3.80;99.90
38866;DHT22;62686;48.984;8.394;2023-02-08T06:53:11;-3.80;99.90
38866;DHT22;62686;48.984;8.394;2023-02-08T06:55:39;-3.90;99.90
38866;DHT22;62686;48.984;8.394;2023-02-08T06:58:07;-3.80;99.90
38866;DHT22;62686;48.984;8.394;2023-02-08T07:00:37;-3.90;99.90
38866;DHT22;62686;48.984;8.394;2023-02-08T07:03:06;-3.80;99.90
38866;DHT22;62686;48.984;8.394;2023-02-08T07:05:34;-3.90;99.90
38866;DHT22;62686;48.984;8.394;2023-02-08T07:08:03;-3.80;99.90
38866;DHT22;62686;48.984;8.394;2023-02-08T07:10:32;-3.90;99.90
38866;DHT22;62686;48.984;8.394;2023-02-08T07:13:01;-3.80;99.90
38866;DHT22;62686;48.984;8.394;2023-02-08T07:15:29;-3.80;99.90
38866;DHT22;62686;48.984;8.394;2023-02-08T07:17:58;-3.80;99.90
38866;DHT22;62686;48.984;8.394;2023-02-08T07:20:26;-3.70;99.90
38866;DHT22;62686;48.984;8.394;2023-02-08T07:22:54;-3.60;99.90
38866;DHT22;62686;48.984;8.394;2023-02-08T07:25:23;-3.50;99.90
38866;DHT22;62686;48.984;8.394;2023-02-08T07:27:51;-3.50;99.90
38866;DHT22;62686;48.984;8.394;2023-02-08T07:30:19;-3.50;99.90
38866;DHT22;62686;48.984;8.394;2023-02-08T07:32:47;-3.40;99.90
38866;DHT22;62686;48.984;8.394;2023-02-08T07:35:17;-3.40;99.90
38866;DHT22;62686;48.984;8.394;2023-02-08T07:37:45;-3.30;99.90
38866;DHT22;62686;48.984;8.394;2023-02-08T07:40:13;-3.30;99.90
38866;DHT22;62686;48.984;8.394;2023-02-08T07:42:41;-3.30;99.90
38866;DHT22;62686;48.984;8.394;2023-02-08T07:45:10;-3.20;99.90
38866;DHT22;62686;48.984;8.394;2023-02-08T07:47:39;-2.90;99.90
38866;DHT22;62686;48.984;8.394;2023-02-08T07:50:08;-2.80;99.90
38866;DHT22;62686;48.984;8.394;2023-02-08T07:52:37;-2.80;99.90
38866;DHT22;62686;48.984;8.394;2023-02-08T07:55:08;-2.80;99.90
38866;DHT22;62686;48.984;8.394;2023-02-08T07:57:37;-2.80;99.90
38866;DHT22;62686;48.984;8.394;2023-02-08T08:00:06;-2.70;99.90
38866;DHT22;62686;48.984;8.394;2023-02-08T08:02:34;-2.60;99.90
38866;DHT22;62686;48.984;8.394;2023-02-08T08:05:03;-2.70;99.90
38866;DHT22;62686;48.984;8.394;2023-02-08T08:07:31;-2.60;99.90
38866;DHT22;62686;48.984;8.394;2023-02-08T08:10:01;-2.60;99.90
38866;DHT22;62686;48.984;8.394;2023-02-08T08:12:29;-2.40;99.90
38866;DHT22;62686;48.984;8.394;2023-02-08T08:14:57;-2.30;99.90
38866;DHT22;62686;48.984;8.394;2023-02-08T08:17:25;-2.40;99.90
38866;DHT22;62686;48.984;8.394;2023-02-08T08:19:55;-2.20;99.90
38866;DHT22;62686;48.984;8.394;2023-02-08T08:22:23;-2.20;99.90
38866;DHT22;62686;48.984;8.394;2023-02-08T08:24:51;-2.10;99.90
38866;DHT22;62686;48.984;8.394;2023-02-08T08:27:21;-2.00;99.90
38866;DHT22;62686;48.984;8.394;2023-02-08T08:29:50;-1.90;99.90
38866;DHT22;62686;48.984;8.394;2023-02-08T08:32:18;-1.80;99.90
38866;DHT22;62686;48.984;8.394;2023-02-08T08:34:46;-1.80;99.90
38866;DHT22;62686;48.984;8.394;2023-02-08T08:37:14;-1.70;99.90
38866;DHT22;62686;48.984;8.394;2023-02-08T08:39:42;-1.60;99.90
38866;DHT22;62686;48.984;8.394;2023-02-08T08:42:11;-1.60;99.90
38866;DHT22;62686;48.984;8.394;2023-02-08T08:44:41;-1.50;99.90
38866;DHT22;62686;48.984;8.394;2023-02-08T08:47:10;-1.50;99.90
38866;DHT22;62686;48.984;8.394;2023-02-08T08:49:38;-1.40;99.90
38866;DHT22;62686;48.984;8.394;2023-02-08T08:52:08;-1.40;99.90
38866;DHT22;62686;48.984;8.394;2023-02-08T08:54:37;-1.30;99.90
38866;DHT22;62686;48.984;8.394;2023-02-08T08:57:05;-1.30;99.90
38866;DHT22;62686;48.984;8.394;2023-02-08T08:59:33;-1.10;99.90
38866;DHT22;62686;48.984;8.394;2023-02-08T09:02:03;-1.00;99.90
38866;DHT22;62686;48.984;8.394;2023-02-08T09:04:32;-0.90;99.90
38866;DHT22;62686;48.984;8.394;2023-02-08T09:07:00;-0.90;99.90
38866;DHT22;62686;48.984;8.394;2023-02-08T09:09:28;-0.80;99.90
38866;DHT22;62686;48.984;8.394;2023-02-08T09:11:56;-0.70;99.90
38866;DHT22;62686;48.984;8.394;2023-02-08T09:14:24;-0.60;99.90
38866;DHT22;62686;48.984;8.394;2023-02-08T09:16:53;-0.50;99.90
38866;DHT22;62686;48.984;8.394;2023-02-08T09:19:24;-0.50;99.90
38866;DHT22;62686;48.984;8.394;2023-02-08T09:21:54;-0.40;99.90
38866;DHT22;62686;48.984;8.394;2023-02-08T09:24:23;-0.30;99.90
38866;DHT22;62686;48.984;8.394;2023-02-08T09:26:52;-0.30;99.90
38866;DHT22;62686;48.984;8.394;2023-02-08T09:29:20;-0.10;99.90
38866;DHT22;62686;48.984;8.394;2023-02-08T09:31:48;0.00;99.90
38866;DHT22;62686;48.984;8.394;2023-02-08T09:34:18;0.00;99.90
38866;DHT22;62686;48.984;8.394;2023-02-08T09:36:48;0.10;99.90
38866;DHT22;62686;48.984;8.394;2023-02-08T09:39:19;0.20;99.90
38866;DHT22;62686;48.984;8.394;2023-02-08T09:42:03;0.20;99.90
38866;DHT22;62686;48.984;8.394;2023-02-08T09:44:43;0.30;99.90
38866;DHT22;62686;48.984;8.394;2023-02-08T09:47:17;0.40;99.90
38866;DHT22;62686;48.984;8.394;2023-02-08T09:49:55;0.50;99.90
38866;DHT22;62686;48.984;8.394;2023-02-08T09:52:32;0.60;99.90
38866;DHT22;62686;48.984;8.394;2023-02-08T09:55:07;0.80;99.90
38866;DHT22;62686;48.984;8.394;2023-02-08T09:57:37;1.00;99.90
38866;DHT22;62686;48.984;8.394;2023-02-08T10:00:11;1.00;99.90
38866;DHT22;62686;48.984;8.394;2023-02-08T10:02:42;1.10;99.90
38866;DHT22;62686;48.984;8.394;2023-02-08T10:05:13;1.10;99.90
38866;DHT22;62686;48.984;8.394;2023-02-08T10:07:45;1.20;99.90
38866;DHT22;62686;48.984;8.394;2023-02-08T10:10:17;1.30;99.90
38866;DHT22;62686;48.984;8.394;2023-02-08T10:12:52;1.40;99.90
38866;DHT22;62686;48.984;8.394;2023-02-08T10:15:31;1.50;99.90
38866;DHT22;62686;48.984;8.394;2023-02-08T10:18:14;1.70;99.90
38866;DHT22;62686;48.984;8.394;2023-02-08T10:20:59;1.90;99.90
38866;DHT22;62686;48.984;8.394;2023-02-08T10:23:51;1.90;99.90
38866;DHT22;62686;48.984;8.394;2023-02-08T10:26:29;2.20;99.90
38866;DHT22;62686;48.984;8.394;2023-02-08T10:29:26;2.50;99.90
38866;DHT22;62686;48.984;8.394;2023-02-08T10:32:09;2.70;99.90
38866;DHT22;62686;48.984;8.394;2023-02-08T10:34:45;2.80;99.90
38866;DHT22;62686;48.984;8.394;2023-02-08T10:37:26;2.90;99.90
38866;DHT22;62686;48.984;8.394;2023-02-08T10:40:29;3.00;99.90
38866;DHT22;62686;48.984;8.394;2023-02-08T10:43:06;3.00;99.90
38866;DHT22;62686;48.984;8.394;2023-02-08T10:45:42;3.00;99.90
38866;DHT22;62686;48.984;8.394;2023-02-08T10:48:16;3.10;99.90
38866;DHT22;62686;48.984;8.394;2023-02-08T10:50:48;3.20;99.90
38866;DHT22;62686;48.984;8.394;2023-02-08T10:53:18;3.30;99.90
38866;DHT22;62686;48.984;8.394;2023-02-08T10:55:50;3.60;99.90
38866;DHT22;62686;48.984;8.394;2023-02-08T10:58:23;3.80;99.90
38866;DHT22;62686;48.984;8.394;2023-02-08T11:00:53;3.90;99.90
38866;DHT22;62686;48.984;8.394;2023-02-08T11:03:26;3.60;99.90
38866;DHT22;62686;48.984;8.394;2023-02-08T11:05:55;3.50;99.90
38866;DHT22;62686;48.984;8.394;2023-02-08T11:08:25;3.60;99.90
38866;DHT22;62686;48.984;8.394;2023-02-08T11:10:58;3.60;99.90
38866;DHT22;62686;48.984;8.394;2023-02-08T11:13:31;3.70;99.90
38866;DHT22;62686;48.984;8.394;2023-02-08T11:16:03;3.90;99.90
38866;DHT22;62686;48.984;8.394;2023-02-08T11:18:35;4.10;99.90
38866;DHT22;62686;48.984;8.394;2023-02-08T11:21:06;4.10;99.90
38866;DHT22;62686;48.984;8.394;2023-02-08T11:23:40;4.00;99.90
38866;DHT22;62686;48.984;8.394;2023-02-08T11:26:17;4.00;99.90
38866;DHT22;62686;48.984;8.394;2023-02-08T11:28:59;4.00;99.90
38866;DHT22;62686;48.984;8.394;2023-02-08T11:31:28;4.00;99.90
38866;DHT22;62686;48.984;8.394;2023-02-08T11:34:00;4.10;99.90
38866;DHT22;62686;48.984;8.394;2023-02-08T11:36:31;4.00;99.90
38866;DHT22;62686;48.984;8.394;2023-02-08T11:39:00;4.00;99.90
38866;DHT22;62686;48.984;8.394;2023-02-08T11:41:31;4.20;99.90
38866;DHT22;62686;48.984;8.394;2023-02-08T11:44:02;4.50;99.90
38866;DHT22;62686;48.984;8.394;2023-02-08T11:46:33;4.80;99.90
38866;DHT22;62686;48.984;8.394;2023-02-08T11:49:02;4.70;99.90
38866;DHT22;62686;48.984;8.394;2023-02-08T11:51:33;4.60;99.90
38866;DHT22;62686;48.984;8.394;2023-02-08T11:54:04;5.50;99.90
38866;DHT22;62686;48.984;8.394;2023-02-08T11:56:34;5.80;98.90
38866;DHT22;62686;48.984;8.394;2023-02-08T11:59:14;6.80;98.20
38866;DHT22;62686;48.984;8.394;2023-02-08T12:01:45;8.00;97.20
38866;DHT22;62686;48.984;8.394;2023-02-08T12:04:15;7.60;94.90
38866;DHT22;62686;48.984;8.394;2023-02-08T12:07:08;7.50;94.50
38866;DHT22;62686;48.984;8.394;2023-02-08T12:10:04;6.50;94.90
38866;DHT22;62686;48.984;8.394;2023-02-08T12:12:50;6.70;95.50
38866;DHT22;62686;48.984;8.394;2023-02-08T13:25:24;12.70;76.10
38866;DHT22;62686;48.984;8.394;2023-02-08T13:27:53;13.40;75.70
38866;DHT22;62686;48.984;8.394;2023-02-08T13:30:21;13.80;75.30
38866;DHT22;62686;48.984;8.394;2023-02-08T13:32:50;13.30;74.50
38866;DHT22;62686;48.984;8.394;2023-02-08T13:35:23;13.70;75.10
38866;DHT22;62686;48.984;8.394;2023-02-08T13:37:59;13.10;74.90
38866;DHT22;62686;48.984;8.394;2023-02-08T13:40:31;12.90;75.50
38866;DHT22;62686;48.984;8.394;2023-02-08T13:43:03;12.70;75.30
38866;DHT22;62686;48.984;8.394;2023-02-08T13:45:34;12.50;76.10
38866;DHT22;62686;48.984;8.394;2023-02-08T13:48:04;13.00;77.20
38866;DHT22;62686;48.984;8.394;2023-02-08T13:50:51;13.10;73.80
38866;DHT22;62686;48.984;8.394;2023-02-08T13:56:50;11.90;76.60
38866;DHT22;62686;48.984;8.394;2023-02-08T13:59:33;11.50;77.70
38866;DHT22;62686;48.984;8.394;2023-02-08T14:02:24;11.20;77.70
38866;DHT22;62686;48.984;8.394;2023-02-08T14:07:42;11.30;79.00
38866;DHT22;62686;48.984;8.394;2023-02-08T14:10:31;11.80;78.10
38866;DHT22;62686;48.984;8.394;2023-02-08T14:13:13;11.90;76.70
38866;DHT22;62686;48.984;8.394;2023-02-08T14:15:43;10.80;76.70
38866;DHT22;62686;48.984;8.394;2023-02-08T14:18:21;11.00;79.60
38866;DHT22;62686;48.984;8.394;2023-02-08T14:21:01;11.00;78.80
38866;DHT22;62686;48.984;8.394;2023-02-08T14:23:31;10.50;79.70
38866;DHT22;62686;48.984;8.394;2023-02-08T14:26:04;10.50;80.20
38866;DHT22;62686;48.984;8.394;2023-02-08T14:28:37;10.50;81.00
38866;DHT22;62686;48.984;8.394;2023-02-08T14:31:09;9.50;82.50
38866;DHT22;62686;48.984;8.394;2023-02-08T14:33:40;8.60;84.80
38866;DHT22;62686;48.984;8.394;2023-02-08T14:36:21;8.20;87.80
38866;DHT22;62686;48.984;8.394;2023-02-08T14:41:48;7.50;90.20
38866;DHT22;62686;48.984;8.394;2023-02-08T14:45:01;7.40;90.60
38866;DHT22;62686;48.984;8.394;2023-02-08T14:48:13;6.90;91.00
38866;DHT22;62686;48.984;8.394;2023-02-08T14:51:12;6.70;91.90
38866;DHT22;62686;48.984;8.394;2023-02-08T14:53:45;6.50;92.20
38866;DHT22;62686;48.984;8.394;2023-02-08T14:56:18;6.50;92.20
38866;DHT22;62686;48.984;8.394;2023-02-08T14:58:49;6.70;91.70
38866;DHT22;62686;48.984;8.394;2023-02-08T15:01:24;6.80;91.70
38866;DHT22;62686;48.984;8.394;2023-02-08T15:03:58;7.00;92.80
38866;DHT22;62686;48.984;8.394;2023-02-08T15:06:57;7.00;91.40
38866;DHT22;62686;48.984;8.394;2023-02-08T15:09:34;6.80;92.60
38866;DHT22;62686;48.984;8.394;2023-02-08T15:12:04;6.30;92.40
38866;DHT22;62686;48.984;8.394;2023-02-08T15:14:35;5.60;93.30
38866;DHT22;62686;48.984;8.394;2023-02-08T15:17:05;5.20;93.90
38866;DHT22;62686;48.984;8.394;2023-02-08T15:19:35;4.90;95.20
38866;DHT22;62686;48.984;8.394;2023-02-08T15:22:24;4.70;95.60
38866;DHT22;62686;48.984;8.394;2023-02-08T15:24:56;4.60;96.60
38866;DHT22;62686;48.984;8.394;2023-02-08T15:27:28;4.40;97.10
38866;DHT22;62686;48.984;8.394;2023-02-08T15:29:57;4.40;97.70
38866;DHT22;62686;48.984;8.394;2023-02-08T15:32:28;4.30;97.90
38866;DHT22;62686;48.984;8.394;2023-02-08T15:34:58;4.20;97.10
38866;DHT22;62686;48.984;8.394;2023-02-08T15:37:30;4.10;98.60
38866;DHT22;62686;48.984;8.394;2023-02-08T15:40:00;4.10;98.20
38866;DHT22;62686;48.984;8.394;2023-02-08T15:42:32;4.10;98.90
38866;DHT22;62686;48.984;8.394;2023-02-08T15:45:00;4.00;99.10
38866;DHT22;62686;48.984;8.394;2023-02-08T15:47:33;4.00;98.80
38866;DHT22;62686;48.984;8.394;2023-02-08T15:50:03;3.90;99.30
38866;DHT22;62686;48.984;8.394;2023-02-08T15:52:34;3.90;99.40
38866;DHT22;62686;48.984;8.394;2023-02-08T15:55:05;3.90;99.50
38866;DHT22;62686;48.984;8.394;2023-02-08T15:57:37;3.80;99.90
38866;DHT22;62686;48.984;8.394;2023-02-08T16:00:13;3.80;99.90
38866;DHT22;62686;48.984;8.394;2023-02-08T16:02:49;3.70;99.90
38866;DHT22;62686;48.984;8.394;2023-02-08T16:05:21;3.60;99.90
38866;DHT22;62686;48.984;8.394;2023-02-08T16:07:50;3.50;99.90
38866;DHT22;62686;48.984;8.394;2023-02-08T16:10:24;3.50;99.90
38866;DHT22;62686;48.984;8.394;2023-02-08T16:12:58;3.50;99.90
38866;DHT22;62686;48.984;8.394;2023-02-08T16:15:41;3.40;99.90
38866;DHT22;62686;48.984;8.394;2023-02-08T16:18:34;3.50;99.90
38866;DHT22;62686;48.984;8.394;2023-02-08T16:21:16;3.40;99.90
38866;DHT22;62686;48.984;8.394;2023-02-08T16:23:48;3.30;99.90
38866;DHT22;62686;48.984;8.394;2023-02-08T16:26:21;3.20;99.90
38866;DHT22;62686;48.984;8.394;2023-02-08T16:28:55;3.10;99.90
38866;DHT22;62686;48.984;8.394;2023-02-08T16:31:25;3.10;99.90
38866;DHT22;62686;48.984;8.394;2023-02-08T16:34:03;3.10;99.90
38866;DHT22;62686;48.984;8.394;2023-02-08T16:36:35;3.00;99.90
38866;DHT22;62686;48.984;8.394;2023-02-08T16:39:36;2.90;99.90
38866;DHT22;62686;48.984;8.394;2023-02-08T16:42:06;2.90;99.90
38866;DHT22;62686;48.984;8.394;2023-02-08T16:47:45;2.60;99.90
38866;DHT22;62686;48.984;8.394;2023-02-08T16:50:17;2.60;99.90
38866;DHT22;62686;48.984;8.394;2023-02-08T16:52:47;2.40;99.90
38866;DHT22;62686;48.984;8.394;2023-02-08T16:55:19;2.40;99.90
38866;DHT22;62686;48.984;8.394;2023-02-08T16:57:49;2.40;99.90
38866;DHT22;62686;48.984;8.394;2023-02-08T17:00:21;2.30;99.90
38866;DHT22;62686;48.984;8.394;2023-02-08T17:02:52;2.40;99.90
38866;DHT22;62686;48.984;8.394;2023-02-08T17:05:23;2.30;99.90
38866;DHT22;62686;48.984;8.394;2023-02-08T17:07:52;2.30;99.90
38866;DHT22;62686;48.984;8.394;2023-02-08T17:10:23;2.30;99.90
38866;DHT22;62686;48.984;8.394;2023-02-08T17:12:54;2.20;99.90
38866;DHT22;62686;48.984;8.394;2023-02-08T17:15:38;2.00;99.90
38866;DHT22;62686;48.984;8.394;2023-02-08T17:18:07;2.00;99.90
38866;DHT22;62686;48.984;8.394;2023-02-08T17:20:36;1.90;99.90
38866;DHT22;62686;48.984;8.394;2023-02-08T17:23:05;2.00;99.90
38866;DHT22;62686;48.984;8.394;2023-02-08T17:25:34;2.00;99.90
38866;DHT22;62686;48.984;8.394;2023-02-08T17:28:04;2.00;99.90
38866;DHT22;62686;48.984;8.394;2023-02-08T17:30:35;1.90;99.90
38866;DHT22;62686;48.984;8.394;2023-02-08T17:33:04;1.90;99.90
38866;DHT22;62686;48.984;8.394;2023-02-08T17:35:33;1.80;99.90
38866;DHT22;62686;48.984;8.394;2023-02-08T17:38:05;1.70;99.90